createdAt,value
2019-05-10T00:02:04.248Z,21.12
2019-05-10T00:04:52.373Z,18.00
2019-05-10T00:07:40.196Z,16.97
2019-05-10T00:10:09.681Z,19.10
2019-05-10T00:12:41.486Z,22.80
2019-05-10T00:15:11.766Z,23.75
2019-05-10T00:17:42.101Z,17.27
2019-05-10T00:20:12.295Z,26.87
2019-05-10T00:22:42.423Z,20.17
2019-05-10T00:25:12.509Z,17.80
2019-05-10T00:27:42.593Z,20.05
2019-05-10T00:30:12.585Z,17.48
2019-05-10T00:32:42.596Z,17.05
2019-05-10T00:35:12.812Z,18.17
2019-05-10T00:37:43.048Z,17.40
2019-05-10T00:40:13.154Z,17.25
2019-05-10T00:42:43.200Z,17.90
2019-05-10T00:45:13.195Z,21.60
2019-05-10T00:47:43.441Z,13.13
2019-05-10T00:50:13.452Z,17.75
2019-05-10T00:52:43.494Z,20.82
2019-05-10T00:55:18.872Z,14.18
2019-05-10T00:57:45.341Z,20.02
2019-05-10T01:00:15.525Z,19.52
2019-05-10T01:02:45.690Z,13.30
2019-05-10T01:05:15.863Z,15.63
2019-05-10T01:07:45.880Z,16.85
2019-05-10T01:10:15.949Z,14.55
2019-05-10T01:12:46.066Z,16.85
2019-05-10T01:15:16.392Z,16.90
2019-05-10T01:17:46.509Z,18.37
2019-05-10T01:20:16.693Z,14.18
2019-05-10T01:22:46.809Z,15.58
2019-05-10T01:25:17.011Z,19.85
2019-05-10T01:27:47.289Z,14.40
2019-05-10T01:30:18.944Z,17.32
2019-05-10T01:32:49.017Z,16.65
2019-05-10T01:35:19.081Z,20.12
2019-05-10T01:37:49.149Z,19.25
2019-05-10T01:40:19.209Z,17.75
2019-05-10T01:42:49.316Z,16.65
2019-05-10T01:45:19.543Z,15.08
2019-05-10T01:47:49.715Z,14.75
2019-05-10T01:50:19.933Z,19.15
2019-05-10T01:52:50.137Z,17.80
2019-05-10T01:55:20.234Z,17.73
2019-05-10T01:57:50.364Z,18.17
2019-05-10T02:00:20.384Z,14.53
2019-05-10T02:02:50.511Z,22.37
2019-05-10T02:05:20.597Z,19.55
2019-05-10T02:07:50.658Z,17.15
2019-05-10T02:10:20.881Z,19.30
2019-05-10T02:12:50.886Z,16.67
2019-05-10T02:15:21.050Z,14.68
2019-05-10T02:17:51.252Z,16.20
2019-05-10T02:20:21.442Z,17.07
2019-05-10T02:22:51.686Z,18.85
2019-05-10T02:25:21.746Z,16.37
2019-05-10T02:27:51.951Z,19.05
2019-05-10T02:30:22.976Z,22.02
2019-05-10T02:32:53.171Z,23.87
2019-05-10T02:35:23.149Z,24.72
2019-05-10T02:37:53.204Z,22.42
2019-05-10T02:40:23.506Z,23.87
2019-05-10T02:42:53.604Z,24.10
2019-05-10T02:45:23.768Z,29.60
2019-05-10T02:47:53.751Z,22.05
2019-05-10T02:50:23.781Z,29.18
2019-05-10T02:52:53.855Z,28.17
2019-05-10T02:55:23.904Z,26.20
2019-05-10T02:57:54.738Z,31.37
2019-05-10T03:00:25.279Z,28.27
2019-05-10T03:02:55.464Z,26.15
2019-05-10T03:05:27.224Z,24.95
2019-05-10T03:10:27.947Z,25.08
2019-05-10T03:12:59.719Z,29.63
2019-05-10T03:15:31.267Z,26.97
2019-05-10T03:18:02.978Z,26.97
2019-05-10T03:20:33.475Z,28.05
2019-05-10T03:23:04.330Z,26.17
2019-05-10T03:25:34.658Z,31.27
2019-05-10T03:28:05.708Z,29.50
2019-05-10T03:30:35.790Z,24.35
2019-05-10T03:33:05.842Z,28.55
2019-05-10T03:35:36.007Z,28.27
2019-05-10T03:38:06.189Z,24.50
2019-05-10T03:40:36.275Z,25.10
2019-05-10T03:43:06.487Z,29.02
2019-05-10T03:45:36.562Z,22.65
2019-05-10T03:48:06.818Z,24.45
2019-05-10T03:50:36.898Z,20.90
2019-05-10T03:53:06.982Z,25.00
2019-05-10T03:55:37.076Z,22.52
2019-05-10T03:58:07.239Z,20.92
2019-05-10T04:00:40.090Z,23.73
2019-05-10T04:03:10.177Z,21.52
2019-05-10T04:05:40.410Z,22.77
2019-05-10T04:08:10.419Z,23.38
2019-05-10T04:10:40.520Z,20.12
2019-05-10T04:13:10.646Z,27.07
2019-05-10T04:15:40.845Z,28.62
2019-05-10T04:18:10.869Z,27.75
2019-05-10T04:20:40.952Z,33.65
2019-05-10T04:23:11.039Z,28.47
2019-05-10T04:25:41.109Z,25.48
2019-05-10T04:28:11.203Z,24.57
2019-05-10T04:30:41.278Z,31.75
2019-05-10T04:33:11.369Z,22.17
2019-05-10T04:35:41.469Z,25.97
2019-05-10T04:38:11.747Z,26.68
2019-05-10T04:40:41.918Z,28.60
2019-05-10T04:43:11.983Z,23.90
2019-05-10T04:45:42.085Z,21.70
2019-05-10T04:48:12.214Z,21.25
2019-05-10T04:50:42.271Z,26.48
2019-05-10T04:53:12.362Z,25.35
2019-05-10T04:55:42.525Z,19.17
2019-05-10T04:58:12.518Z,23.32
2019-05-10T05:00:42.537Z,23.55
2019-05-10T05:03:12.593Z,21.20
2019-05-10T05:05:42.824Z,24.60
2019-05-10T05:08:14.094Z,21.70
2019-05-10T05:10:45.209Z,23.95
2019-05-10T05:13:15.189Z,20.27
2019-05-10T05:15:45.366Z,21.35
2019-05-10T05:18:15.608Z,18.55
2019-05-10T05:20:45.698Z,20.43
2019-05-10T05:23:15.771Z,21.55
2019-05-10T05:25:45.861Z,20.90
2019-05-10T05:28:18.334Z,25.95
2019-05-10T05:30:49.444Z,20.00
2019-05-10T05:33:19.547Z,15.98
2019-05-10T05:35:49.709Z,17.90
2019-05-10T05:38:20.769Z,18.05
2019-05-10T05:40:51.974Z,22.22
2019-05-10T05:43:22.170Z,23.25
2019-05-10T05:45:52.155Z,22.40
2019-05-10T05:48:23.120Z,18.52
2019-05-10T05:53:23.476Z,13.03
2019-05-10T05:55:53.530Z,13.03
2019-05-10T05:58:27.459Z,13.90
2019-05-10T06:00:55.423Z,11.30
2019-05-10T06:03:29.646Z,16.35
2019-05-10T06:05:57.529Z,13.05
2019-05-10T06:08:29.999Z,15.95
2019-05-10T06:11:00.089Z,12.95
2019-05-10T06:13:32.224Z,13.60
2019-05-10T06:16:06.233Z,13.40
2019-05-10T06:18:33.900Z,12.15
2019-05-10T06:21:03.945Z,13.80
2019-05-10T06:23:35.284Z,12.28
2019-05-10T06:26:07.475Z,13.50
2019-05-10T06:28:57.386Z,11.68
2019-05-10T06:31:09.105Z,7.20
2019-05-10T06:33:39.628Z,8.03
2019-05-10T06:36:10.985Z,15.58
2019-05-10T06:38:41.171Z,15.23
2019-05-10T06:41:16.905Z,10.28
2019-05-10T06:43:45.643Z,9.55
2019-05-10T06:48:43.967Z,9.35
2019-05-10T06:51:14.057Z,10.65
2019-05-10T06:53:52.267Z,7.05
2019-05-10T06:58:45.326Z,7.85
2019-05-10T07:01:15.372Z,7.25
2019-05-10T07:03:45.533Z,12.88
2019-05-10T07:06:15.708Z,9.15
2019-05-10T07:08:46.077Z,24.00
2019-05-10T07:11:17.519Z,8.98
2019-05-10T07:13:52.528Z,7.00
2019-05-10T07:18:54.863Z,5.12
2019-05-10T07:21:21.622Z,4.35
2019-05-10T07:23:51.731Z,4.90
2019-05-10T07:26:24.420Z,6.35
2019-05-10T07:28:57.636Z,7.87
2019-05-10T07:33:55.901Z,6.35
2019-05-10T07:36:30.526Z,6.30
2019-05-10T07:38:57.762Z,5.75
2019-05-10T07:41:29.109Z,5.55
2019-05-10T07:44:00.877Z,7.85
2019-05-10T07:49:00.537Z,7.08
2019-05-10T07:51:30.745Z,9.05
2019-05-10T07:54:04.544Z,11.35
2019-05-10T07:59:01.829Z,3.45
2019-05-10T08:01:34.714Z,4.30
2019-05-10T08:04:05.072Z,2.47
2019-05-10T08:06:43.463Z,4.22
2019-05-10T08:11:39.230Z,2.80
2019-05-10T08:14:11.241Z,3.65
2019-05-10T08:19:10.595Z,5.33
2019-05-10T08:21:41.932Z,3.00
2019-05-10T08:24:16.115Z,2.67
2019-05-10T08:29:16.726Z,3.45
2019-05-10T08:34:15.747Z,9.35
2019-05-10T08:36:47.677Z,8.73
2019-05-10T08:41:55.982Z,8.58
2019-05-10T08:44:21.001Z,13.62
2019-05-10T08:46:52.347Z,12.10
2019-05-10T08:49:29.487Z,8.78
2019-05-10T08:54:26.316Z,19.73
2019-05-10T08:57:01.298Z,16.37
2019-05-10T08:59:30.689Z,20.68
2019-05-10T09:04:33.528Z,28.25
2019-05-10T09:09:33.710Z,29.45
2019-05-10T09:14:34.938Z,26.75
2019-05-10T09:17:05.149Z,23.10
2019-05-10T09:19:40.573Z,23.25
2019-05-10T09:22:06.945Z,26.15
2019-05-10T09:24:43.103Z,22.62
2019-05-10T09:27:08.750Z,14.78
2019-05-10T09:29:38.873Z,10.18
2019-05-10T09:32:09.047Z,11.38
2019-05-10T09:34:39.169Z,11.48
2019-05-10T09:37:16.056Z,10.35
2019-05-10T09:42:24.899Z,10.78
2019-05-10T09:44:45.875Z,12.80
2019-05-10T09:47:15.207Z,16.60
2019-05-10T09:49:54.091Z,11.63
2019-05-10T09:52:18.668Z,16.25
2019-05-10T09:54:49.601Z,13.90
2019-05-10T09:57:19.623Z,11.88
2019-05-10T09:59:49.717Z,12.65
2019-05-10T10:02:19.910Z,12.68
2019-05-10T10:04:50.036Z,12.13
2019-05-10T10:07:24.216Z,11.60
2019-05-10T10:09:51.924Z,10.28
2019-05-10T10:12:22.029Z,12.35
2019-05-10T10:14:52.123Z,16.32
2019-05-10T10:17:22.193Z,11.30
2019-05-10T10:19:52.249Z,13.90
2019-05-10T10:22:22.321Z,13.68
2019-05-10T10:24:55.126Z,7.33
2019-05-10T10:29:57.210Z,8.83
2019-05-10T10:34:57.833Z,6.08
2019-05-10T10:37:31.185Z,6.00
2019-05-10T10:42:30.913Z,6.50
2019-05-10T10:45:01.159Z,10.55
2019-05-10T10:47:32.358Z,7.45
2019-05-10T10:50:09.104Z,5.30
2019-05-10T10:52:37.600Z,6.83
2019-05-10T10:55:11.077Z,8.00
2019-05-10T10:57:39.818Z,4.50
2019-05-10T11:00:10.623Z,3.25
2019-05-10T11:02:46.501Z,5.70
2019-05-10T11:05:13.749Z,4.80
2019-05-10T11:07:47.227Z,5.65
2019-05-10T11:10:19.266Z,6.72
2019-05-10T11:12:51.206Z,6.70
2019-05-10T11:17:51.408Z,5.20
2019-05-10T11:20:21.679Z,4.15
2019-05-10T11:22:53.393Z,6.03
2019-05-10T11:27:58.192Z,5.45
2019-05-10T11:30:24.371Z,6.50
2019-05-10T11:32:54.352Z,9.65
2019-05-10T11:35:30.539Z,5.37
2019-05-10T11:40:30.822Z,4.53
2019-05-10T11:42:57.242Z,3.92
2019-05-10T11:45:34.412Z,5.47
2019-05-10T11:50:34.971Z,4.78
2019-05-10T11:55:35.050Z,4.53
2019-05-10T11:58:08.732Z,7.37
2019-05-10T12:00:35.128Z,6.50
2019-05-10T12:03:11.328Z,10.03
2019-05-10T12:05:37.045Z,8.75
2019-05-10T12:08:07.209Z,7.58
2019-05-10T12:13:18.565Z,6.40
2019-05-10T12:18:14.769Z,5.30
2019-05-10T12:23:23.143Z,5.72
2019-05-10T12:26:05.228Z,6.22
2019-05-10T12:28:24.614Z,3.17
2019-05-10T12:30:50.909Z,2.83
2019-05-10T12:33:25.218Z,3.98
2019-05-10T12:38:23.575Z,3.10
2019-05-10T12:43:22.181Z,4.00
2019-05-10T12:45:52.349Z,12.07
2019-05-10T12:48:23.635Z,22.77
2019-05-10T12:50:56.217Z,5.62
2019-05-10T12:53:25.515Z,3.72
2019-05-10T12:55:55.715Z,2.60
2019-05-10T12:58:25.925Z,4.17
2019-05-10T13:00:58.859Z,13.13
2019-05-10T13:05:58.442Z,4.47
2019-05-10T13:08:28.682Z,2.83
2019-05-10T13:10:58.831Z,2.85
2019-05-10T13:13:30.047Z,2.90
2019-05-10T13:16:03.441Z,2.83
2019-05-10T13:18:49.607Z,5.70
2019-05-10T13:21:07.359Z,17.02
2019-05-10T13:26:04.547Z,5.25
2019-05-10T13:28:34.684Z,5.10
2019-05-10T13:31:05.532Z,5.25
2019-05-10T13:33:42.097Z,6.22
2019-05-10T13:36:08.228Z,4.28
2019-05-10T13:38:43.999Z,9.28
2019-05-10T13:41:10.040Z,4.55
2019-05-10T13:43:40.140Z,4.08
2019-05-10T13:46:10.302Z,4.80
2019-05-10T13:48:41.384Z,2.65
2019-05-10T13:51:11.487Z,4.58
2019-05-10T13:53:41.813Z,5.58
2019-05-10T13:56:11.998Z,3.20
2019-05-10T13:58:42.172Z,3.45
2019-05-10T14:01:13.065Z,6.60
2019-05-10T14:06:14.888Z,4.03
2019-05-10T14:08:48.381Z,4.95
2019-05-10T14:11:16.595Z,5.85
2019-05-10T14:13:46.795Z,3.20
2019-05-10T14:16:19.587Z,3.50
2019-05-10T14:18:49.965Z,5.25
2019-05-10T14:21:20.140Z,3.85
2019-05-10T14:23:50.293Z,5.53
2019-05-10T14:26:20.494Z,7.78
2019-05-10T14:28:53.263Z,7.17
2019-05-10T14:31:22.569Z,13.45
2019-05-10T14:38:56.106Z,9.00
2019-05-10T14:43:54.727Z,9.30
2019-05-10T14:46:24.911Z,9.43
2019-05-10T14:48:55.115Z,10.88
2019-05-10T14:51:40.473Z,8.63
2019-05-10T14:53:58.336Z,12.88
2019-05-10T14:58:58.018Z,8.93
2019-05-10T15:01:28.128Z,6.20
2019-05-10T15:03:58.321Z,8.03
2019-05-10T15:06:30.628Z,6.33
2019-05-10T15:11:31.570Z,7.25
2019-05-10T15:14:01.073Z,5.58
2019-05-10T15:16:31.110Z,4.62
2019-05-10T15:19:01.257Z,5.08
2019-05-10T15:21:34.470Z,11.10
2019-05-10T15:24:04.689Z,5.65
2019-05-10T15:26:37.416Z,8.95
2019-05-10T15:29:06.461Z,12.20
2019-05-10T15:31:36.530Z,10.98
2019-05-10T15:34:06.749Z,6.78
2019-05-10T15:36:36.818Z,8.35
2019-05-10T15:39:07.257Z,5.62
2019-05-10T15:41:37.281Z,6.90
2019-05-10T15:44:07.362Z,3.62
2019-05-10T15:46:42.356Z,5.58
2019-05-10T15:51:41.097Z,3.98
2019-05-10T15:54:11.305Z,5.20
2019-05-10T15:56:43.973Z,6.20
2019-05-10T15:59:18.740Z,7.25
2019-05-10T16:01:45.735Z,9.58
2019-05-10T16:04:16.308Z,6.17
2019-05-10T16:06:46.397Z,4.92
2019-05-10T16:09:18.897Z,6.72
2019-05-10T16:11:49.334Z,5.60
2019-05-10T16:14:19.521Z,5.92
2019-05-10T16:16:49.695Z,5.78
2019-05-10T16:19:20.299Z,6.28
2019-05-10T16:21:52.290Z,5.67
2019-05-10T16:24:26.489Z,9.43
2019-05-10T16:27:00.155Z,10.35
2019-05-10T16:29:26.834Z,6.70
2019-05-10T16:31:57.055Z,7.95
2019-05-10T16:34:32.272Z,7.45
2019-05-10T16:36:59.035Z,7.28
2019-05-10T16:39:29.153Z,5.00
2019-05-10T16:41:59.325Z,6.60
2019-05-10T16:44:29.483Z,8.03
2019-05-10T16:46:59.637Z,10.08
2019-05-10T16:49:29.712Z,6.53
2019-05-10T16:51:59.798Z,7.30
2019-05-10T16:54:29.926Z,11.97
2019-05-10T16:57:01.459Z,10.63
2019-05-10T16:59:34.881Z,9.93
2019-05-10T17:04:37.528Z,10.45
2019-05-10T17:07:06.264Z,16.27
2019-05-10T17:09:36.447Z,13.93
2019-05-10T17:12:08.504Z,13.30
2019-05-10T17:17:07.723Z,14.68
2019-05-10T17:19:37.975Z,18.75
2019-05-10T17:22:08.149Z,18.27
2019-05-10T17:24:38.366Z,13.00
2019-05-10T17:27:08.495Z,18.92
2019-05-10T17:29:38.634Z,14.60
2019-05-10T17:32:08.723Z,12.63
2019-05-10T17:34:38.888Z,21.68
2019-05-10T17:37:08.914Z,22.32
2019-05-10T17:39:39.125Z,20.25
2019-05-10T17:42:09.214Z,19.05
2019-05-10T17:44:39.280Z,24.92
2019-05-10T17:47:10.904Z,29.67
2019-05-10T17:49:41.450Z,19.00
2019-05-10T17:52:13.058Z,21.87
2019-05-10T17:54:44.327Z,20.75
2019-05-10T17:57:16.591Z,28.92
2019-05-10T17:59:47.012Z,36.98
2019-05-10T18:02:17.887Z,33.45
2019-05-10T18:04:48.181Z,45.50
2019-05-10T18:07:18.383Z,44.15
2019-05-10T18:09:50.183Z,33.02
2019-05-10T18:12:23.071Z,40.98
2019-05-10T18:14:55.858Z,33.13
2019-05-10T18:17:25.985Z,27.48
2019-05-10T18:19:56.637Z,34.65
2019-05-10T18:24:56.569Z,32.05
2019-05-10T18:27:26.769Z,26.33
2019-05-10T18:29:56.963Z,28.42
2019-05-10T18:32:29.332Z,34.65
2019-05-10T18:34:59.022Z,32.30
2019-05-10T18:37:29.075Z,25.37
2019-05-10T18:39:59.253Z,29.90
2019-05-10T18:42:30.129Z,31.93
2019-05-10T18:45:00.349Z,22.60
2019-05-10T18:47:30.341Z,26.25
2019-05-10T18:50:01.925Z,21.42
2019-05-10T18:52:32.029Z,35.78
2019-05-10T18:55:02.281Z,24.85
2019-05-10T18:57:33.103Z,28.10
2019-05-10T19:00:03.669Z,27.77
2019-05-10T19:02:34.142Z,25.80
2019-05-10T19:05:05.918Z,22.02
2019-05-10T19:07:36.133Z,23.65
2019-05-10T19:10:06.732Z,23.42
2019-05-10T19:12:37.253Z,25.57
2019-05-10T19:15:14.713Z,24.50
2019-05-10T19:17:45.181Z,27.45
2019-05-10T19:20:16.288Z,23.57
2019-05-10T19:22:44.402Z,21.10
2019-05-10T19:25:14.686Z,28.32
2019-05-10T19:27:50.565Z,23.83
2019-05-10T19:30:20.684Z,24.57
2019-05-10T19:32:51.106Z,28.45
2019-05-10T19:35:21.921Z,19.90
2019-05-10T19:37:52.141Z,23.22
2019-05-10T19:40:22.326Z,16.73
2019-05-10T19:42:52.388Z,18.42
2019-05-10T19:45:22.482Z,14.85
2019-05-10T19:47:55.773Z,15.80
2019-05-10T19:50:30.311Z,14.85
2019-05-10T19:52:58.492Z,17.60
2019-05-10T19:55:29.126Z,15.30
2019-05-10T19:57:59.340Z,17.67
2019-05-10T20:00:29.569Z,19.15
2019-05-10T20:02:59.703Z,23.95
2019-05-10T20:05:29.937Z,22.25
2019-05-10T20:08:00.091Z,25.30
2019-05-10T20:10:30.169Z,20.20
2019-05-10T20:13:00.354Z,21.82
2019-05-10T20:15:30.431Z,16.80
2019-05-10T20:18:00.765Z,24.25
2019-05-10T20:20:30.760Z,25.92
2019-05-10T20:23:00.931Z,19.05
2019-05-10T20:25:30.910Z,21.20
2019-05-10T20:28:01.111Z,18.55
2019-05-10T20:30:31.165Z,26.42
2019-05-10T20:33:01.345Z,20.25
2019-05-10T20:35:31.408Z,19.48
2019-05-10T20:38:02.835Z,28.47
2019-05-10T20:40:36.932Z,21.85
2019-05-10T20:43:04.700Z,21.37
2019-05-10T20:45:34.762Z,18.42
2019-05-10T20:48:04.826Z,24.27
2019-05-10T20:50:34.874Z,21.35
2019-05-10T20:53:04.899Z,20.30
2019-05-10T20:55:34.962Z,20.00
2019-05-10T20:58:05.024Z,22.62
2019-05-10T21:00:35.522Z,22.75
2019-05-10T21:03:05.671Z,28.98
2019-05-10T21:05:35.713Z,24.60
2019-05-10T21:08:16.540Z,22.05
2019-05-10T21:10:37.537Z,25.60
2019-05-10T21:13:07.613Z,25.55
2019-05-10T21:15:37.691Z,29.37
2019-05-10T21:18:07.822Z,32.00
2019-05-10T21:20:38.026Z,28.07
2019-05-10T21:23:08.095Z,21.85
2019-05-10T21:25:38.365Z,29.30
2019-05-10T21:28:08.435Z,25.08
2019-05-10T21:30:38.633Z,26.97
2019-05-10T21:33:08.850Z,27.90
2019-05-10T21:35:38.969Z,18.27
2019-05-10T21:38:09.055Z,20.68
2019-05-10T21:40:39.136Z,22.25
2019-05-10T21:43:09.305Z,21.00
2019-05-10T21:45:39.421Z,17.42
2019-05-10T21:48:09.506Z,14.30
2019-05-10T21:50:39.505Z,20.48
2019-05-10T21:53:09.655Z,23.75
2019-05-10T21:55:39.761Z,19.15
2019-05-10T21:58:09.885Z,20.10
2019-05-10T22:00:44.655Z,20.48
2019-05-10T22:03:14.695Z,20.62
2019-05-10T22:05:44.889Z,20.43
2019-05-10T22:08:14.956Z,19.52
2019-05-10T22:10:45.173Z,21.35
2019-05-10T22:13:15.146Z,18.75
2019-05-10T22:15:45.182Z,19.65
2019-05-10T22:18:15.213Z,15.35
2019-05-10T22:20:45.222Z,18.10
2019-05-10T22:23:15.453Z,15.65
2019-05-10T22:25:45.453Z,19.17
2019-05-10T22:28:15.498Z,24.90
2019-05-10T22:30:46.069Z,21.52
2019-05-10T22:33:18.818Z,18.55
2019-05-10T22:35:48.891Z,18.67
2019-05-10T22:38:20.021Z,19.87
2019-05-10T22:40:50.118Z,21.02
2019-05-10T22:43:20.299Z,17.45
2019-05-10T22:45:50.531Z,18.75
2019-05-10T22:48:20.566Z,19.00
2019-05-10T22:50:50.637Z,14.93
2019-05-10T22:53:20.672Z,21.40
2019-05-10T22:55:50.765Z,20.82
2019-05-10T22:58:20.936Z,24.05
2019-05-10T23:00:52.157Z,22.67
2019-05-10T23:03:24.535Z,18.90
2019-05-10T23:05:53.977Z,19.67
2019-05-10T23:08:25.161Z,16.62
2019-05-10T23:10:55.323Z,17.15
2019-05-10T23:13:25.498Z,18.82
2019-05-10T23:15:55.509Z,14.10
2019-05-10T23:18:25.607Z,13.90
2019-05-10T23:20:56.003Z,14.25
2019-05-10T23:23:26.157Z,18.05
2019-05-10T23:25:56.206Z,15.13
2019-05-10T23:28:26.372Z,12.80
2019-05-10T23:30:56.579Z,10.58
2019-05-10T23:33:26.765Z,15.32
2019-05-10T23:35:56.957Z,12.13
2019-05-10T23:38:26.942Z,16.20
2019-05-10T23:40:56.982Z,13.40
2019-05-10T23:43:27.085Z,19.65
2019-05-10T23:45:57.317Z,13.93
2019-05-10T23:48:27.366Z,20.02
2019-05-10T23:50:58.565Z,19.37
2019-05-10T23:53:28.628Z,16.20
2019-05-10T23:55:58.662Z,16.50
2019-05-10T23:58:28.849Z,14.38
